Time;durP1;ratioP1;P1;durP2;ratioP2;P2;SDS_P1;SDS_P2;PMS_P1;PMS_P2;Temp;Humidity;BMP_temperature;BMP_pressure;BME280_temperature;BME280_humidity;BME280_pressure;Samples;Min_cycle;Max_cycle;Signal;HPM_P1;HPM_P2
2022/08/29 00:01:05;;;;;;;5.57;3.10;;;17.70;99.90;;;;;;5113284;28;20452;-65
2022/08/29 00:03:32;;;;;;;4.77;2.80;;;17.80;99.90;;;;;;5113271;28;20449;-65
2022/08/29 00:05:58;;;;;;;11.40;3.90;;;17.80;99.90;;;;;;5113171;28;20446;-65
2022/08/29 00:08:25;;;;;;;4.33;3.07;;;17.70;99.90;;;;;;5113145;28;20800;-66
2022/08/29 00:10:51;;;;;;;5.20;3.33;;;17.70;99.90;;;;;;5112906;28;20478;-65
2022/08/29 00:13:20;;;;;;;5.20;3.00;;;17.70;99.90;;;;;;5113831;28;20472;-65
2022/08/29 00:15:47;;;;;;;6.63;3.57;;;17.60;99.90;;;;;;5117268;28;20460;-65
2022/08/29 00:18:15;;;;;;;6.10;3.10;;;17.60;99.90;;;;;;5117267;28;20471;-65
2022/08/29 00:20:42;;;;;;;11.13;4.50;;;17.50;99.90;;;;;;5117152;28;20518;-65
2022/08/29 00:23:09;;;;;;;8.40;3.80;;;17.50;99.90;;;;;;5116959;28;20450;-65
2022/08/29 00:25:36;;;;;;;7.93;3.37;;;17.50;99.90;;;;;;5116999;28;20948;-65
2022/08/29 00:28:03;;;;;;;5.47;3.40;;;17.40;99.90;;;;;;5117113;28;20445;-65
2022/08/29 00:30:32;;;;;;;6.57;3.77;;;17.40;99.90;;;;;;5117063;28;20536;-65
2022/08/29 00:32:59;;;;;;;5.57;3.60;;;17.40;99.90;;;;;;5116837;28;20503;-65
2022/08/29 00:35:29;;;;;;;10.40;3.50;;;17.40;99.90;;;;;;5116803;28;20446;-65
2022/08/29 00:37:55;;;;;;;7.43;3.63;;;17.40;99.90;;;;;;5116752;28;20757;-65
2022/08/29 00:40:25;;;;;;;4.90;3.70;;;17.30;99.90;;;;;;5116704;27;20454;-65
2022/08/29 00:42:51;;;;;;;5.03;3.47;;;17.30;99.90;;;;;;5116766;28;20449;-65
2022/08/29 00:45:18;;;;;;;5.20;3.80;;;17.30;99.90;;;;;;5116685;28;20445;-65
2022/08/29 00:47:51;;;;;;;9.53;3.60;;;17.20;99.90;;;;;;5116590;28;20572;-65
2022/08/29 00:50:25;;;;;;;8.33;4.07;;;17.10;99.90;;;;;;5116457;28;20498;-65
2022/08/29 00:52:52;;;;;;;4.10;3.20;;;17.10;99.90;;;;;;5116604;28;20487;-65
2022/08/29 00:55:22;;;;;;;10.33;3.63;;;17.10;99.90;;;;;;5116566;28;20816;-65
2022/08/29 00:57:54;;;;;;;3.67;3.23;;;17.10;99.90;;;;;;5116699;28;20441;-65
2022/08/29 01:00:21;;;;;;;4.70;3.17;;;17.10;99.90;;;;;;5116391;28;20806;-65
2022/08/29 01:02:50;;;;;;;8.10;3.70;;;17.10;99.90;;;;;;5116179;28;20446;-65
2022/08/29 01:05:18;;;;;;;6.90;3.60;;;17.00;99.90;;;;;;5116447;28;20522;-65
2022/08/29 01:07:45;;;;;;;5.93;3.27;;;17.00;99.90;;;;;;5116297;28;20522;-65
2022/08/29 01:12:14;;;;;;;6.43;2.90;;;17.00;99.90;;;;;;5116200;28;20532;-65
2022/08/29 01:13:01;;;;;;;7.33;3.57;;;17.00;99.90;;;;;;5115882;28;20482;-65
2022/08/29 01:15:29;;;;;;;6.73;3.13;;;17.00;99.90;;;;;;5116270;28;20453;-65
2022/08/29 01:17:58;;;;;;;4.40;3.00;;;17.00;99.90;;;;;;5116011;28;20948;-65
2022/08/29 01:20:32;;;;;;;8.23;3.60;;;17.00;99.90;;;;;;5116102;28;20449;-65
2022/08/29 01:23:07;;;;;;;6.60;3.50;;;17.00;99.90;;;;;;5115923;28;20445;-65
2022/08/29 01:25:38;;;;;;;4.73;3.10;;;17.00;99.90;;;;;;5115299;28;20449;-65
2022/08/29 01:28:11;;;;;;;4.50;3.90;;;17.00;99.90;;;;;;5115974;28;20452;-65
2022/08/29 01:30:57;;;;;;;5.10;3.50;;;17.00;99.90;;;;;;5115910;28;20449;-65
2022/08/29 01:33:23;;;;;;;7.00;3.63;;;17.00;99.90;;;;;;5115639;28;20488;-65
2022/08/29 01:35:50;;;;;;;6.70;3.70;;;17.00;99.90;;;;;;5115599;28;20442;-65
2022/08/29 01:38:26;;;;;;;4.17;3.03;;;16.90;99.90;;;;;;5115476;28;20450;-65
2022/08/29 01:40:54;;;;;;;5.30;3.93;;;16.90;99.90;;;;;;5115715;28;20445;-65
2022/08/29 01:43:21;;;;;;;3.67;3.30;;;16.90;99.90;;;;;;5115717;28;20485;-65
2022/08/29 01:45:48;;;;;;;8.10;4.07;;;16.90;99.90;;;;;;5115630;28;20446;-65
2022/08/29 01:48:15;;;;;;;7.10;3.50;;;16.80;99.90;;;;;;5115151;28;21061;-65
2022/08/29 01:50:42;;;;;;;7.43;3.83;;;16.80;99.90;;;;;;5115268;28;20972;-65
2022/08/29 01:53:08;;;;;;;8.23;4.20;;;16.80;99.90;;;;;;5115399;28;20538;-65
2022/08/29 01:55:36;;;;;;;9.17;3.83;;;16.80;99.90;;;;;;5115340;28;20804;-66
2022/08/29 01:58:04;;;;;;;6.00;3.87;;;16.80;99.90;;;;;;5115328;28;20480;-65
2022/08/29 02:00:31;;;;;;;4.13;3.70;;;16.80;99.90;;;;;;5115144;28;20453;-65
2022/08/29 02:02:59;;;;;;;6.13;3.80;;;16.70;99.90;;;;;;5115146;28;20450;-65
2022/08/29 02:05:26;;;;;;;6.53;4.37;;;16.70;99.90;;;;;;5115293;28;20441;-65
2022/08/29 02:07:53;;;;;;;4.53;3.37;;;16.60;99.90;;;;;;5115176;28;20445;-65
2022/08/29 02:10:20;;;;;;;7.80;3.70;;;16.60;99.90;;;;;;5115025;28;20449;-65
2022/08/29 02:12:47;;;;;;;7.40;3.73;;;16.60;99.90;;;;;;5114876;28;20478;-65
2022/08/29 02:15:17;;;;;;;3.97;3.40;;;16.60;99.90;;;;;;5114979;28;20456;-65
2022/08/29 02:17:44;;;;;;;15.03;4.03;;;16.60;99.90;;;;;;5114818;28;21034;-65
2022/08/29 02:20:11;;;;;;;6.80;3.70;;;16.60;99.90;;;;;;5114938;28;20446;-65
2022/08/29 02:22:39;;;;;;;5.97;3.40;;;16.60;99.90;;;;;;5114932;28;20449;-65
2022/08/29 02:27:51;;;;;;;6.37;4.20;;;16.50;99.90;;;;;;5114439;28;20491;-65
2022/08/29 02:30:18;;;;;;;8.10;3.80;;;16.50;99.90;;;;;;5114506;28;20835;-65
2022/08/29 02:32:45;;;;;;;5.90;3.70;;;16.40;99.90;;;;;;5114706;28;20487;-64
2022/08/29 02:35:11;;;;;;;5.50;3.43;;;16.40;99.90;;;;;;5114573;28;20456;-64
2022/08/29 02:37:38;;;;;;;5.60;3.87;;;16.20;99.90;;;;;;5113696;28;20450;-65
2022/08/29 02:40:05;;;;;;;7.33;3.87;;;16.20;99.90;;;;;;5114436;28;20446;-64
2022/08/29 02:42:32;;;;;;;3.77;3.43;;;16.20;99.90;;;;;;5114390;28;20446;-65
2022/08/29 02:45:00;;;;;;;6.70;3.93;;;16.20;99.90;;;;;;5114197;28;20445;-65
2022/08/29 02:47:27;;;;;;;6.17;4.23;;;16.20;99.90;;;;;;5114289;28;20502;-65
2022/08/29 02:49:54;;;;;;;5.53;3.60;;;16.20;99.90;;;;;;5114387;28;20445;-64
2022/08/29 02:52:20;;;;;;;8.07;3.90;;;16.10;99.90;;;;;;5114167;28;20492;-64
2022/08/29 02:54:47;;;;;;;6.70;3.60;;;16.20;99.90;;;;;;5114178;28;20452;-64
2022/08/29 02:57:13;;;;;;;7.77;3.77;;;16.20;99.90;;;;;;5113984;28;20452;-64
2022/08/29 02:59:40;;;;;;;7.87;4.03;;;16.10;99.90;;;;;;5113936;28;20472;-64
2022/08/29 03:02:06;;;;;;;7.40;4.33;;;16.10;99.90;;;;;;5114169;28;20449;-64
2022/08/29 03:04:34;;;;;;;9.23;3.90;;;16.10;99.90;;;;;;5114058;28;20453;-64
2022/08/29 03:07:04;;;;;;;7.73;3.73;;;16.10;99.90;;;;;;5114186;28;20460;-64
2022/08/29 03:09:30;;;;;;;8.83;4.60;;;16.00;99.90;;;;;;5113863;28;20450;-64
2022/08/29 03:11:57;;;;;;;7.90;3.97;;;16.00;99.90;;;;;;5113593;28;20449;-64
2022/08/29 03:14:24;;;;;;;4.77;3.37;;;16.00;99.90;;;;;;5113722;28;21059;-64
2022/08/29 03:16:51;;;;;;;16.37;5.60;;;16.00;99.90;;;;;;5113842;28;20445;-64
2022/08/29 03:19:18;;;;;;;6.33;3.33;;;15.90;99.90;;;;;;5113807;28;20485;-64
2022/08/29 03:21:46;;;;;;;11.40;4.43;;;15.90;99.90;;;;;;5113621;28;20450;-64
2022/08/29 03:24:12;;;;;;;8.37;3.90;;;16.00;99.90;;;;;;5113571;28;20450;-65
2022/08/29 03:26:39;;;;;;;4.57;3.40;;;15.90;99.90;;;;;;5113520;28;20545;-65
2022/08/29 03:29:05;;;;;;;7.90;3.63;;;15.90;99.90;;;;;;5113675;28;20446;-65
2022/08/29 03:31:32;;;;;;;6.40;3.60;;;15.90;99.90;;;;;;5113612;28;20800;-65
2022/08/29 03:33:58;;;;;;;8.20;3.93;;;15.90;99.90;;;;;;5113435;28;20488;-65
2022/08/29 03:36:26;;;;;;;8.37;3.83;;;15.90;99.90;;;;;;5113439;28;20446;-65
2022/08/29 03:38:54;;;;;;;12.70;4.13;;;15.90;99.90;;;;;;5113361;28;20441;-65
2022/08/29 03:41:22;;;;;;;8.27;3.60;;;15.80;99.90;;;;;;5113544;28;20453;-65
2022/08/29 03:43:49;;;;;;;4.13;3.73;;;15.90;99.90;;;;;;5113630;28;20548;-66
2022/08/29 03:46:15;;;;;;;5.90;3.97;;;15.80;99.90;;;;;;5113357;28;20445;-65
2022/08/29 03:48:42;;;;;;;6.13;3.90;;;15.80;99.90;;;;;;5113036;28;20480;-65
2022/08/29 03:51:09;;;;;;;6.50;3.73;;;15.80;99.90;;;;;;5113297;28;20445;-64
2022/08/29 03:53:35;;;;;;;8.80;4.20;;;15.80;99.90;;;;;;5113039;28;20478;-64
2022/08/29 03:56:04;;;;;;;4.50;3.80;;;15.80;99.90;;;;;;5113422;28;20455;-64
2022/08/29 03:58:31;;;;;;;6.17;4.13;;;15.80;99.90;;;;;;5113349;28;20813;-65
2022/08/29 04:00:58;;;;;;;10.93;4.30;;;15.70;99.90;;;;;;5113242;28;20494;-65
2022/08/29 04:03:25;;;;;;;10.60;4.93;;;15.60;99.90;;;;;;5113214;28;20454;-65
2022/08/29 04:05:51;;;;;;;6.50;3.70;;;15.60;99.90;;;;;;5113089;28;20952;-65
2022/08/29 04:08:18;;;;;;;7.40;4.60;;;15.50;99.90;;;;;;5113141;28;20452;-65
2022/08/29 04:10:45;;;;;;;9.17;4.23;;;15.50;99.90;;;;;;5113252;28;20452;-65
2022/08/29 04:13:13;;;;;;;9.93;4.30;;;15.50;99.90;;;;;;5113050;28;20488;-65
2022/08/29 04:15:41;;;;;;;6.10;3.60;;;15.50;99.90;;;;;;5113066;28;20456;-65
2022/08/29 04:18:09;;;;;;;4.90;4.00;;;15.50;99.90;;;;;;5113014;28;20447;-65
2022/08/29 04:20:40;;;;;;;5.80;4.10;;;15.40;99.90;;;;;;5112917;28;20534;-65
2022/08/29 04:23:07;;;;;;;8.50;3.90;;;15.50;99.90;;;;;;5113120;28;20449;-65
2022/08/29 04:25:35;;;;;;;6.70;4.20;;;15.50;99.90;;;;;;5112931;28;20441;-65
2022/08/29 04:28:03;;;;;;;6.10;3.70;;;15.40;99.90;;;;;;5112912;28;20452;-65
2022/08/29 04:30:31;;;;;;;10.37;4.93;;;15.40;99.90;;;;;;5112922;28;20467;-65
2022/08/29 04:32:58;;;;;;;7.80;3.80;;;15.40;99.90;;;;;;5112748;28;20560;-65
2022/08/29 04:35:24;;;;;;;5.30;3.63;;;15.40;99.90;;;;;;5113002;28;20449;-65
2022/08/29 04:37:51;;;;;;;6.67;3.80;;;15.40;99.90;;;;;;5112959;28;20445;-65
2022/08/29 04:40:20;;;;;;;4.87;4.40;;;15.40;99.90;;;;;;5112964;28;20445;-64
2022/08/29 04:42:47;;;;;;;8.40;3.93;;;15.40;99.90;;;;;;5112852;28;20476;-65
2022/08/29 04:45:17;;;;;;;5.43;4.80;;;15.40;99.90;;;;;;5112715;28;20497;-65
2022/08/29 04:47:46;;;;;;;6.90;3.67;;;15.40;99.90;;;;;;5112565;28;20564;-64
2022/08/29 04:50:17;;;;;;;10.33;4.40;;;15.30;99.90;;;;;;5112835;28;20441;-65
2022/08/29 04:52:43;;;;;;;7.33;4.47;;;15.30;99.90;;;;;;5112597;28;20851;-65
2022/08/29 04:55:11;;;;;;;6.33;4.33;;;15.30;99.90;;;;;;5112666;28;20449;-64
2022/08/29 04:57:39;;;;;;;7.33;3.63;;;15.40;99.90;;;;;;5112571;28;20452;-64
2022/08/29 05:00:11;;;;;;;8.67;5.23;;;15.40;99.90;;;;;;5114512;28;20477;-65
2022/08/29 05:02:38;;;;;;;5.70;3.97;;;15.40;99.90;;;;;;5116138;28;20449;-64
2022/08/29 05:05:07;;;;;;;6.53;4.30;;;15.40;99.90;;;;;;5116229;28;20451;-65
2022/08/29 05:07:33;;;;;;;6.53;3.67;;;15.40;99.90;;;;;;5116257;28;20804;-64
2022/08/29 05:10:03;;;;;;;6.90;4.03;;;15.40;99.90;;;;;;5115861;28;20933;-64
2022/08/29 05:12:32;;;;;;;16.60;4.60;;;15.40;99.90;;;;;;5115911;28;20446;-64
2022/08/29 05:14:59;;;;;;;5.30;4.20;;;15.50;99.90;;;;;;5115919;28;20442;-64
2022/08/29 05:17:26;;;;;;;8.97;3.50;;;15.50;99.90;;;;;;5116057;28;20820;-64
2022/08/29 05:19:53;;;;;;;10.53;5.43;;;15.60;99.90;;;;;;5115960;28;20446;-64
2022/08/29 05:22:21;;;;;;;6.87;4.87;;;15.60;99.90;;;;;;5115987;28;20477;-64
2022/08/29 05:24:49;;;;;;;9.03;4.80;;;15.70;99.90;;;;;;5115776;28;20782;-64
2022/08/29 05:27:18;;;;;;;6.47;3.80;;;15.70;99.90;;;;;;5115652;28;20452;-65
2022/08/29 05:29:46;;;;;;;7.30;4.00;;;15.80;99.90;;;;;;5115819;28;20446;-65
2022/08/29 05:32:14;;;;;;;6.13;4.40;;;15.90;99.90;;;;;;5115683;28;20808;-65
2022/08/29 05:34:43;;;;;;;14.43;4.80;;;16.00;99.90;;;;;;5115642;28;20560;-64
2022/08/29 05:37:11;;;;;;;9.77;4.83;;;16.00;99.90;;;;;;5115512;28;20499;-64
2022/08/29 05:39:40;;;;;;;9.63;4.20;;;16.00;99.90;;;;;;5115524;28;20445;-64
2022/08/29 05:42:08;;;;;;;5.60;3.80;;;16.10;99.90;;;;;;5115610;28;20448;-64
2022/08/29 05:44:36;;;;;;;5.87;4.60;;;16.10;99.90;;;;;;5115512;28;20450;-64
2022/08/29 05:47:03;;;;;;;9.77;4.77;;;16.20;99.90;;;;;;5115471;28;20544;-64
2022/08/29 05:49:30;;;;;;;6.63;4.10;;;16.20;99.90;;;;;;5115386;28;20450;-64
2022/08/29 05:51:59;;;;;;;7.13;4.67;;;16.30;99.90;;;;;;5115210;28;20452;-64
2022/08/29 05:54:26;;;;;;;6.83;4.03;;;16.40;99.90;;;;;;5115421;28;20486;-65
2022/08/29 05:56:53;;;;;;;7.70;4.83;;;16.40;99.90;;;;;;5115719;28;20448;-65
2022/08/29 05:59:20;;;;;;;7.33;4.60;;;16.40;99.90;;;;;;5115111;28;20544;-65
2022/08/29 06:01:46;;;;;;;13.80;5.20;;;16.40;99.90;;;;;;5115130;28;20491;-65
2022/08/29 06:04:13;;;;;;;14.73;4.90;;;16.50;99.90;;;;;;5114955;28;20876;-64
2022/08/29 06:06:41;;;;;;;11.37;5.27;;;16.60;99.90;;;;;;5114938;28;20441;-65
2022/08/29 06:09:08;;;;;;;11.80;5.30;;;16.60;99.90;;;;;;5114801;28;20477;-65
2022/08/29 06:11:35;;;;;;;8.30;5.03;;;16.70;99.90;;;;;;5114956;28;20468;-65
2022/08/29 06:14:02;;;;;;;7.60;4.93;;;16.60;99.90;;;;;;5114867;28;20523;-65
2022/08/29 06:16:31;;;;;;;9.10;5.47;;;16.60;99.90;;;;;;5114875;28;20792;-65
2022/08/29 06:18:57;;;;;;;8.60;4.97;;;16.70;99.90;;;;;;5114546;28;20456;-65
2022/08/29 06:21:24;;;;;;;9.70;5.20;;;16.80;99.90;;;;;;5114506;28;20450;-65
2022/08/29 06:23:51;;;;;;;8.93;5.53;;;17.00;99.90;;;;;;5114841;28;20449;-65
2022/08/29 06:26:18;;;;;;;8.53;4.93;;;17.10;99.90;;;;;;5114839;28;20468;-65
2022/08/29 06:28:45;;;;;;;10.30;5.40;;;17.20;99.90;;;;;;5114647;28;20858;-65
2022/08/29 06:31:16;;;;;;;8.13;5.50;;;17.30;99.90;;;;;;5114341;28;20507;-65
2022/08/29 06:33:43;;;;;;;9.30;4.83;;;17.50;99.90;;;;;;5114344;28;20477;-65
2022/08/29 06:36:11;;;;;;;8.77;5.30;;;17.60;99.90;;;;;;5114221;28;20445;-65
2022/08/29 06:38:37;;;;;;;9.93;5.30;;;17.50;99.90;;;;;;5114228;28;20558;-65
2022/08/29 06:41:04;;;;;;;10.17;5.90;;;17.60;99.90;;;;;;5114289;28;20456;-65
2022/08/29 06:43:31;;;;;;;11.10;5.03;;;17.60;99.90;;;;;;5114268;28;20452;-65
2022/08/29 06:45:57;;;;;;;11.10;5.80;;;17.70;99.90;;;;;;5114219;28;20446;-65
2022/08/29 06:48:25;;;;;;;7.20;4.43;;;17.70;99.90;;;;;;5113904;28;20530;-65
2022/08/29 06:50:52;;;;;;;8.23;4.83;;;17.80;99.90;;;;;;5113833;28;20452;-65
2022/08/29 06:53:19;;;;;;;10.77;4.93;;;17.90;99.90;;;;;;5114018;28;20473;-65
2022/08/29 06:55:46;;;;;;;10.37;5.23;;;18.00;99.90;;;;;;5113937;28;20953;-65
2022/08/29 06:58:12;;;;;;;15.10;5.40;;;18.00;99.90;;;;;;5113907;28;20665;-66
2022/08/29 07:00:39;;;;;;;7.00;4.60;;;18.00;99.90;;;;;;5113948;28;20452;-65
2022/08/29 07:03:06;;;;;;;6.97;4.73;;;18.10;99.90;;;;;;5113830;28;20532;-65
2022/08/29 07:05:34;;;;;;;6.30;3.90;;;18.20;99.90;;;;;;5113658;28;20453;-65
2022/08/29 07:08:00;;;;;;;8.60;4.47;;;18.30;99.90;;;;;;5113765;28;20831;-65
2022/08/29 07:10:27;;;;;;;11.57;4.80;;;18.40;99.90;;;;;;5113833;28;20450;-65
2022/08/29 07:12:54;;;;;;;11.10;5.30;;;18.50;99.90;;;;;;5113701;28;20456;-65
2022/08/29 07:15:22;;;;;;;6.47;4.57;;;18.50;99.90;;;;;;5113547;28;20818;-65
2022/08/29 07:17:49;;;;;;;13.37;5.23;;;18.40;99.90;;;;;;5113591;28;20893;-65
2022/08/29 07:20:17;;;;;;;7.63;4.53;;;18.40;99.90;;;;;;5113626;28;20445;-65
2022/08/29 07:22:49;;;;;;;10.73;5.20;;;18.30;99.90;;;;;;5113145;28;20902;-65
2022/08/29 07:25:16;;;;;;;7.73;4.50;;;18.30;99.90;;;;;;5113558;28;20441;-65
2022/08/29 07:27:43;;;;;;;7.30;4.40;;;18.30;99.90;;;;;;5113547;28;20467;-65
2022/08/29 07:30:11;;;;;;;10.70;5.37;;;18.40;99.90;;;;;;5113346;28;20464;-65
2022/08/29 07:32:37;;;;;;;13.90;5.00;;;18.40;99.90;;;;;;5113521;28;20448;-65
2022/08/29 07:35:04;;;;;;;7.93;5.10;;;18.40;99.90;;;;;;5113437;28;20485;-66
2022/08/29 07:37:31;;;;;;;7.70;5.57;;;18.30;99.90;;;;;;5113401;28;20466;-65
2022/08/29 07:39:58;;;;;;;12.83;5.10;;;18.20;99.90;;;;;;5113416;28;20898;-65
2022/08/29 07:42:26;;;;;;;12.33;5.43;;;18.20;99.90;;;;;;5113327;28;20800;-65
2022/08/29 07:44:52;;;;;;;9.87;5.00;;;18.20;99.90;;;;;;5113169;28;21011;-65
2022/08/29 07:47:19;;;;;;;9.60;5.60;;;18.20;99.90;;;;;;5110656;28;20495;-65
2022/08/29 07:49:46;;;;;;;9.97;5.60;;;18.30;99.90;;;;;;5093325;28;20451;-64
2022/08/29 07:52:12;;;;;;;11.27;5.20;;;18.40;99.90;;;;;;5099935;28;20452;-60
2022/08/29 07:54:39;;;;;;;9.87;5.57;;;18.40;99.90;;;;;;5110751;28;20572;-62
2022/08/29 07:57:06;;;;;;;8.30;5.33;;;18.30;99.90;;;;;;5106463;28;20453;-67
2022/08/29 07:59:33;;;;;;;8.67;5.20;;;18.30;99.90;;;;;;5092742;28;20446;-57
2022/08/29 08:01:59;;;;;;;7.80;5.00;;;18.30;99.90;;;;;;5093799;28;20447;-59
2022/08/29 08:04:26;;;;;;;6.47;5.87;;;18.30;99.90;;;;;;5092748;28;20478;-59
2022/08/29 08:06:52;;;;;;;7.80;5.40;;;18.20;99.90;;;;;;5092620;28;20545;-59
2022/08/29 08:09:19;;;;;;;11.40;5.50;;;18.20;99.90;;;;;;5092696;28;20548;-58
2022/08/29 08:11:45;;;;;;;12.50;6.40;;;18.30;99.90;;;;;;5092537;28;20805;-58
2022/08/29 08:14:13;;;;;;;12.87;5.73;;;18.40;99.90;;;;;;5096930;28;20500;-60
2022/08/29 08:16:40;;;;;;;8.07;5.90;;;18.40;99.90;;;;;;5107725;28;20536;-60
2022/08/29 08:19:07;;;;;;;11.30;5.10;;;18.40;99.90;;;;;;5113129;28;20452;-61
2022/08/29 08:21:33;;;;;;;12.90;5.90;;;18.50;99.90;;;;;;5112993;28;21007;-60
2022/08/29 08:24:00;;;;;;;10.23;5.27;;;18.50;99.90;;;;;;5112910;28;20452;-61
2022/08/29 08:26:27;;;;;;;7.40;5.10;;;18.50;99.90;;;;;;5105747;28;20457;-60
2022/08/29 08:28:53;;;;;;;11.03;5.00;;;18.60;99.90;;;;;;5102401;28;20455;-61
2022/08/29 08:31:21;;;;;;;11.87;5.53;;;18.60;99.90;;;;;;5110790;28;20531;-61
2022/08/29 08:33:48;;;;;;;10.83;4.70;;;18.70;99.90;;;;;;5106283;28;20477;-61
2022/08/29 08:36:18;;;;;;;7.47;5.07;;;18.70;99.90;;;;;;5102411;28;20453;-60
2022/08/29 08:38:44;;;;;;;11.50;5.50;;;18.70;99.90;;;;;;5112736;28;20850;-61
2022/08/29 08:41:22;;;;;;;6.27;4.80;;;18.70;99.90;;;;;;5099234;28;20529;-62
2022/08/29 08:43:52;;;;;;;7.30;5.20;;;18.80;99.90;;;;;;5106930;28;20964;-61
2022/08/29 08:46:23;;;;;;;8.00;4.77;;;18.90;99.90;;;;;;5103002;28;20481;-61
2022/08/29 08:48:54;;;;;;;11.53;6.70;;;18.90;99.90;;;;;;5116299;28;20837;-62
2022/08/29 08:51:26;;;;;;;11.03;5.50;;;19.00;99.90;;;;;;5113894;28;20534;-62
2022/08/29 08:53:57;;;;;;;7.17;4.93;;;19.20;99.90;;;;;;5106377;28;22335;-62
2022/08/29 08:56:31;;;;;;;10.07;4.83;;;19.20;99.90;;;;;;5107355;27;20817;-63
2022/08/29 08:59:05;;;;;;;12.90;5.30;;;19.30;99.90;;;;;;5101606;28;20453;-63
2022/08/29 09:01:35;;;;;;;9.27;5.20;;;19.20;99.90;;;;;;5095784;28;20962;-64
2022/08/29 09:04:16;;;;;;;10.33;5.50;;;19.40;99.90;;;;;;5106485;28;20540;-59
2022/08/29 09:07:00;;;;;;;10.60;5.20;;;19.30;99.90;;;;;;5100970;28;20489;-64
2022/08/29 09:09:38;;;;;;;11.67;5.50;;;19.40;99.90;;;;;;5112078;28;20460;-60
2022/08/29 09:12:20;;;;;;;8.93;5.80;;;19.50;99.90;;;;;;5113449;28;20816;-60
2022/08/29 09:14:57;;;;;;;8.13;5.37;;;19.50;99.90;;;;;;5095662;28;20829;-59
2022/08/29 09:17:29;;;;;;;5.07;4.47;;;19.60;99.90;;;;;;5095578;28;20456;-60
2022/08/29 09:19:57;;;;;;;7.30;4.60;;;19.60;99.90;;;;;;5098836;28;20447;-58
2022/08/29 09:22:26;;;;;;;7.90;5.00;;;19.80;99.90;;;;;;5109862;28;20452;-59
2022/08/29 09:24:58;;;;;;;7.90;5.27;;;19.80;99.90;;;;;;5113403;28;20466;-59
2022/08/29 09:27:27;;;;;;;7.57;5.40;;;19.80;99.90;;;;;;5106557;28;20496;-60
2022/08/29 09:30:06;;;;;;;7.33;4.57;;;19.80;99.90;;;;;;5105717;28;20449;-58
2022/08/29 09:32:33;;;;;;;7.93;5.27;;;19.90;99.90;;;;;;5114581;28;20532;-59
2022/08/29 09:35:18;;;;;;;7.33;4.90;;;19.80;99.90;;;;;;5102112;28;20910;-58
2022/08/29 09:37:55;;;;;;;6.10;4.93;;;19.90;99.90;;;;;;5112087;28;20453;-60
2022/08/29 09:40:22;;;;;;;8.00;5.00;;;20.10;99.90;;;;;;5111741;27;20986;-60
2022/08/29 09:42:59;;;;;;;8.70;4.70;;;20.20;99.90;;;;;;5107080;28;20445;-61
2022/08/29 09:45:26;;;;;;;7.73;5.60;;;20.50;99.90;;;;;;5104514;28;20529;-60
2022/08/29 09:48:08;;;;;;;6.10;4.23;;;20.60;99.90;;;;;;5106224;28;20833;-60
2022/08/29 09:50:36;;;;;;;8.33;5.30;;;20.70;99.90;;;;;;5113218;28;20450;-61
2022/08/29 09:53:04;;;;;;;9.87;5.83;;;20.70;99.90;;;;;;5115305;28;20804;-60
2022/08/29 09:55:32;;;;;;;5.90;4.93;;;20.70;99.90;;;;;;5109448;28;20478;-60
2022/08/29 09:58:03;;;;;;;7.50;5.33;;;20.80;99.90;;;;;;5104461;28;20801;-61
2022/08/29 10:00:33;;;;;;;6.80;4.37;;;20.80;99.90;;;;;;5101425;28;20446;-62
2022/08/29 10:03:01;;;;;;;7.23;4.80;;;20.90;99.90;;;;;;5113400;28;20541;-62
2022/08/29 10:05:43;;;;;;;5.07;4.57;;;21.00;99.90;;;;;;5094019;28;20454;-62
2022/08/29 10:08:26;;;;;;;6.07;4.67;;;21.00;99.90;;;;;;5116854;27;20459;-61
2022/08/29 10:10:56;;;;;;;6.67;5.70;;;20.90;99.90;;;;;;5098659;28;20489;-62
2022/08/29 10:13:31;;;;;;;6.70;4.83;;;20.80;99.90;;;;;;5097893;28;20454;-61
2022/08/29 10:16:08;;;;;;;7.70;4.70;;;20.80;99.90;;;;;;5108669;28;20559;-63
2022/08/29 10:18:43;;;;;;;6.70;4.93;;;20.60;99.90;;;;;;5099997;28;20472;-64
2022/08/29 10:21:28;;;;;;;8.23;4.70;;;20.60;99.90;;;;;;5111941;28;20449;-61
2022/08/29 10:24:06;;;;;;;6.70;4.47;;;20.60;99.90;;;;;;5113600;28;20449;-62
2022/08/29 10:26:40;;;;;;;5.60;4.70;;;20.40;99.90;;;;;;5104116;28;20450;-59
2022/08/29 10:29:16;;;;;;;9.80;5.27;;;20.60;99.90;;;;;;5108057;28;20450;-60
2022/08/29 10:31:48;;;;;;;8.67;4.77;;;20.70;99.90;;;;;;5102747;28;20446;-57
2022/08/29 10:34:26;;;;;;;8.13;4.93;;;20.80;99.90;;;;;;5107490;28;20446;-62
2022/08/29 10:37:00;;;;;;;7.73;5.50;;;21.00;99.90;;;;;;5114316;28;20446;-63
2022/08/29 10:39:36;;;;;;;5.03;4.53;;;21.10;99.90;;;;;;5106878;28;20447;-63
2022/08/29 10:42:08;;;;;;;7.23;4.73;;;21.20;99.90;;;;;;5096436;28;20977;-62
2022/08/29 10:44:47;;;;;;;8.30;4.43;;;21.20;99.90;;;;;;5094405;28;20481;-59
2022/08/29 10:47:24;;;;;;;6.27;4.13;;;21.10;99.90;;;;;;5103354;28;20828;-60
2022/08/29 10:50:02;;;;;;;5.30;4.60;;;21.20;99.90;;;;;;5112972;27;20472;-62
2022/08/29 10:52:35;;;;;;;6.53;5.00;;;21.20;99.90;;;;;;5104649;27;20446;-62
2022/08/29 10:55:11;;;;;;;7.13;5.13;;;21.30;99.90;;;;;;5123979;27;20565;-58
2022/08/29 10:57:46;;;;;;;5.20;4.17;;;21.40;99.90;;;;;;5112853;27;20454;-59
2022/08/29 11:00:16;;;;;;;5.23;4.50;;;21.50;99.90;;;;;;5103578;28;20824;-60
2022/08/29 11:02:47;;;;;;;4.40;4.00;;;21.30;99.90;;;;;;5110919;28;20446;-62
2022/08/29 11:05:18;;;;;;;8.73;5.10;;;21.40;99.90;;;;;;5116279;27;20463;-61
2022/08/29 11:07:52;;;;;;;5.23;4.73;;;21.40;99.90;;;;;;5129257;27;20502;-60
2022/08/29 11:10:24;;;;;;;6.70;4.10;;;21.40;99.90;;;;;;5117818;27;20436;-61
2022/08/29 11:12:55;;;;;;;4.80;4.30;;;21.30;99.90;;;;;;5110734;27;20445;-60
2022/08/29 11:15:25;;;;;;;5.50;4.57;;;21.30;99.90;;;;;;5113132;28;20541;-61
2022/08/29 11:18:01;;;;;;;7.20;5.07;;;21.30;99.90;;;;;;5112634;28;20472;-61
2022/08/29 11:20:34;;;;;;;7.77;4.90;;;21.20;99.90;;;;;;5113169;28;20455;-61
2022/08/29 11:23:06;;;;;;;6.87;4.80;;;21.30;99.90;;;;;;5112045;28;20976;-61
2022/08/29 11:25:35;;;;;;;5.30;4.80;;;21.30;99.90;;;;;;5112873;28;20473;-61
2022/08/29 11:28:08;;;;;;;5.97;4.80;;;21.40;99.90;;;;;;5118086;27;20481;-61
2022/08/29 11:30:42;;;;;;;5.43;4.60;;;21.40;99.90;;;;;;5132300;27;20440;-61
2022/08/29 11:33:19;;;;;;;4.97;4.47;;;21.30;99.90;;;;;;5133699;27;20448;-61
2022/08/29 11:35:56;;;;;;;4.20;3.80;;;21.40;99.90;;;;;;5133688;27;20476;-61
2022/08/29 11:38:50;;;;;;;7.87;4.43;;;21.60;99.90;;;;;;5134118;27;20480;-61
2022/08/29 11:41:24;;;;;;;4.80;3.57;;;21.60;99.90;;;;;;5134003;27;20452;-61
2022/08/29 11:43:55;;;;;;;4.97;3.67;;;21.70;99.90;;;;;;5133914;27;20444;-60
2022/08/29 11:46:36;;;;;;;4.30;3.90;;;22.00;99.90;;;;;;5129726;27;20456;-60
2022/08/29 11:49:23;;;;;;;3.90;3.60;;;22.20;99.90;;;;;;5092762;28;20513;-60
2022/08/29 11:51:54;;;;;;;4.73;4.23;;;22.40;99.90;;;;;;5093140;28;20454;-61
2022/08/29 11:54:50;;;;;;;4.20;3.80;;;22.50;99.90;;;;;;5092929;28;20453;-61
2022/08/29 11:57:49;;;;;;;4.47;3.90;;;22.70;99.90;;;;;;5092989;28;20504;-61
2022/08/29 12:00:36;;;;;;;3.60;3.20;;;22.80;99.90;;;;;;5092742;28;20450;-61
2022/08/29 12:03:03;;;;;;;4.10;3.60;;;23.10;99.90;;;;;;5092597;28;20447;-61
2022/08/29 12:05:56;;;;;;;6.00;4.00;;;23.00;99.90;;;;;;5092800;28;20794;-61
2022/08/29 12:08:31;;;;;;;4.67;4.30;;;23.10;99.90;;;;;;5110905;27;20444;-61
2022/08/29 12:11:00;;;;;;;4.33;3.90;;;23.00;99.90;;;;;;5117012;28;20449;-60
2022/08/29 12:14:03;;;;;;;4.43;4.10;;;22.90;99.90;;;;;;5116804;28;20445;-61
2022/08/29 12:16:48;;;;;;;5.20;4.00;;;23.10;99.90;;;;;;5033963;28;20480;-61
2022/08/29 12:19:46;;;;;;;4.33;3.87;;;23.10;99.90;;;;;;5111258;28;20455;-61
2022/08/29 12:22:46;;;;;;;4.87;4.47;;;23.30;99.90;;;;;;5133308;27;20448;-61
2022/08/29 12:25:28;;;;;;;7.27;4.30;;;23.20;99.90;;;;;;5129878;27;20902;-60
2022/08/29 12:28:01;;;;;;;4.10;3.73;;;23.50;99.90;;;;;;5137447;27;20458;-60
2022/08/29 12:30:33;;;;;;;4.07;3.77;;;23.70;99.90;;;;;;5137343;27;20464;-61
2022/08/29 12:33:10;;;;;;;4.90;3.43;;;23.80;99.90;;;;;;5137106;27;20474;-61
2022/08/29 12:36:07;;;;;;;4.20;3.90;;;24.20;99.90;;;;;;5137168;27;20828;-61
2022/08/29 12:38:44;;;;;;;3.80;3.60;;;24.40;99.90;;;;;;5137038;27;20493;-61
2022/08/29 12:41:30;;;;;;;4.30;3.70;;;24.30;99.90;;;;;;5137303;27;20519;-61
2022/08/29 12:44:01;;;;;;;5.30;4.00;;;24.10;99.90;;;;;;5137089;27;20908;-60
2022/08/29 12:46:32;;;;;;;6.70;5.57;;;24.00;99.90;;;;;;5137079;27;20454;-61
2022/08/29 12:49:08;;;;;;;3.70;3.40;;;23.90;99.90;;;;;;5136903;27;20560;-60
2022/08/29 12:51:37;;;;;;;3.30;3.00;;;23.80;99.90;;;;;;5132755;27;20440;-61
2022/08/29 12:54:04;;;;;;;3.73;3.03;;;23.80;99.90;;;;;;5132542;27;20441;-61
2022/08/29 12:56:33;;;;;;;4.57;4.13;;;23.80;99.90;;;;;;5131805;27;20472;-60
2022/08/29 12:59:03;;;;;;;4.20;3.80;;;23.70;99.90;;;;;;5116265;28;20877;-60
2022/08/29 13:01:33;;;;;;;4.80;3.23;;;23.70;99.90;;;;;;5116088;28;20974;-59
2022/08/29 13:04:03;;;;;;;4.17;3.40;;;23.50;99.90;;;;;;5116094;28;20449;-60